Time;durP1;ratioP1;P1;durP2;ratioP2;P2;SDS_P1;SDS_P2;PMS_P1;PMS_P2;Temp;Humidity;BMP_temperature;BMP_pressure;BME280_temperature;BME280_humidity;BME280_pressure;Samples;Min_cycle;Max_cycle;Signal;HPM_P1;HPM_P2
2024/01/21 00:01:16;;;;;;;1.57;1.50;;;1.40;99.90;;;;;;7365930;19;20196;-74
2024/01/21 00:03:45;;;;;;;2.23;2.03;;;1.40;99.90;;;;;;7391398;19;20157;-75
2024/01/21 00:06:11;;;;;;;2.23;1.40;;;1.40;99.90;;;;;;7368820;19;20229;-73
2024/01/21 00:08:36;;;;;;;1.67;1.57;;;1.40;99.90;;;;;;7369114;19;20539;-73
2024/01/21 00:11:04;;;;;;;2.23;2.03;;;1.50;99.90;;;;;;7369053;19;20577;-74
2024/01/21 00:13:30;;;;;;;1.43;1.40;;;1.50;99.90;;;;;;7368502;19;20647;-73
2024/01/21 00:15:56;;;;;;;2.23;1.50;;;1.40;99.90;;;;;;7368564;19;20221;-72
2024/01/21 00:18:21;;;;;;;1.90;1.70;;;1.50;99.90;;;;;;7390031;19;20138;-72
2024/01/21 00:20:50;;;;;;;1.53;1.17;;;1.50;99.90;;;;;;7366631;19;20607;-73
2024/01/21 00:23:19;;;;;;;3.67;1.87;;;1.50;99.90;;;;;;7366238;19;20340;-75
2024/01/21 00:25:45;;;;;;;2.30;1.37;;;1.50;99.90;;;;;;7368020;19;20257;-73
2024/01/21 00:28:11;;;;;;;1.93;1.20;;;1.40;99.90;;;;;;7366471;19;20194;-73
2024/01/21 00:30:36;;;;;;;4.10;1.63;;;1.50;99.90;;;;;;7389528;19;20131;-72
2024/01/21 00:33:02;;;;;;;2.97;1.43;;;1.40;99.90;;;;;;7367702;19;20219;-73
2024/01/21 00:35:28;;;;;;;1.63;1.30;;;1.40;99.90;;;;;;7366308;19;20264;-74
2024/01/21 00:37:57;;;;;;;2.87;2.67;;;1.40;99.90;;;;;;7367946;19;20201;-73
2024/01/21 00:40:22;;;;;;;1.20;1.10;;;1.40;99.90;;;;;;7365326;19;20186;-73
2024/01/21 00:42:48;;;;;;;2.20;1.30;;;1.40;99.90;;;;;;7369180;19;20138;-73
2024/01/21 00:45:14;;;;;;;3.00;1.40;;;1.30;99.90;;;;;;7388946;19;20142;-74
2024/01/21 00:47:40;;;;;;;2.30;1.47;;;1.20;99.90;;;;;;7368464;19;20190;-72
2024/01/21 00:50:06;;;;;;;1.17;1.00;;;0.80;99.90;;;;;;7362625;19;20186;-72
2024/01/21 00:52:33;;;;;;;3.80;2.00;;;0.90;99.90;;;;;;7365515;19;20206;-72
2024/01/21 00:54:58;;;;;;;3.57;1.93;;;0.90;99.90;;;;;;7366261;19;20150;-73
2024/01/21 00:57:24;;;;;;;1.87;1.13;;;1.00;99.90;;;;;;7388703;19;20141;-74
2024/01/21 00:59:50;;;;;;;2.37;2.17;;;0.90;99.90;;;;;;7364665;19;20758;-73
2024/01/21 01:02:16;;;;;;;3.90;2.10;;;0.60;99.90;;;;;;7367340;19;20186;-73
2024/01/21 01:04:41;;;;;;;5.47;2.33;;;0.60;99.90;;;;;;7368054;19;20186;-73
2024/01/21 01:07:07;;;;;;;2.70;2.13;;;0.80;99.90;;;;;;7367007;19;20688;-73
2024/01/21 01:09:33;;;;;;;1.90;1.70;;;1.00;99.90;;;;;;7388010;19;20135;-73
2024/01/21 01:11:58;;;;;;;1.73;1.63;;;1.00;99.90;;;;;;7366762;19;20264;-73
2024/01/21 01:14:24;;;;;;;1.80;1.70;;;1.00;99.90;;;;;;7363942;19;20186;-73
2024/01/21 01:16:50;;;;;;;1.87;1.77;;;0.80;99.90;;;;;;7364535;19;20190;-72
2024/01/21 01:19:15;;;;;;;1.13;1.03;;;0.90;99.90;;;;;;7365462;19;20218;-73
2024/01/21 01:21:41;;;;;;;1.90;1.47;;;0.70;99.90;;;;;;7386068;19;20243;-74
2024/01/21 01:24:07;;;;;;;4.17;2.00;;;0.60;99.90;;;;;;7366418;19;20213;-74
2024/01/21 01:26:33;;;;;;;2.10;1.57;;;0.80;99.90;;;;;;7366015;19;20193;-73
2024/01/21 01:28:59;;;;;;;2.40;1.77;;;0.80;99.90;;;;;;7364425;19;20212;-74
2024/01/21 01:31:25;;;;;;;0.87;0.87;;;0.90;99.90;;;;;;7364927;19;20214;-73
2024/01/21 01:33:51;;;;;;;1.40;1.13;;;0.90;99.90;;;;;;7366300;19;20158;-74
2024/01/21 01:36:17;;;;;;;1.10;1.00;;;0.90;99.90;;;;;;7388715;19;20535;-73
2024/01/21 01:38:43;;;;;;;2.27;2.13;;;0.90;99.90;;;;;;7364371;19;20545;-72
2024/01/21 01:41:09;;;;;;;1.30;1.20;;;0.80;99.90;;;;;;7364836;19;20193;-73
2024/01/21 01:43:35;;;;;;;2.80;1.60;;;0.80;99.90;;;;;;7365626;19;20625;-74
2024/01/21 01:46:02;;;;;;;1.77;1.23;;;0.70;99.90;;;;;;7366129;19;20153;-75
2024/01/21 01:48:32;;;;;;;2.33;1.93;;;0.80;99.90;;;;;;7387547;19;20490;-74
2024/01/21 01:50:59;;;;;;;0.87;0.87;;;1.00;99.90;;;;;;7364065;19;20198;-73
2024/01/21 01:53:28;;;;;;;1.63;1.53;;;1.00;99.90;;;;;;7365008;19;20190;-74
2024/01/21 01:55:54;;;;;;;1.00;0.90;;;0.90;99.90;;;;;;7365263;19;20193;-73
2024/01/21 01:58:23;;;;;;;2.40;1.33;;;0.90;99.90;;;;;;7364572;19;20190;-72
2024/01/21 02:00:49;;;;;;;1.93;1.00;;;0.90;99.90;;;;;;7362207;19;20135;-73
2024/01/21 02:03:15;;;;;;;0.77;0.77;;;0.70;99.90;;;;;;7392691;19;20149;-74
2024/01/21 02:05:41;;;;;;;1.23;1.17;;;0.80;99.90;;;;;;7370953;19;20194;-73
2024/01/21 02:08:07;;;;;;;1.37;1.27;;;0.90;99.90;;;;;;7372634;19;20190;-74
2024/01/21 02:10:32;;;;;;;2.03;1.70;;;0.70;99.90;;;;;;7370610;19;20194;-73
2024/01/21 02:12:58;;;;;;;3.90;2.33;;;0.70;99.90;;;;;;7373170;19;20143;-73
2024/01/21 02:15:24;;;;;;;2.50;1.80;;;0.80;99.90;;;;;;7393733;19;20135;-73
2024/01/21 02:17:50;;;;;;;2.10;1.90;;;0.80;99.90;;;;;;7371527;19;20470;-73
2024/01/21 02:20:16;;;;;;;3.23;1.70;;;0.80;99.90;;;;;;7366670;19;20185;-74
2024/01/21 02:22:42;;;;;;;1.97;1.87;;;0.80;99.90;;;;;;7373286;19;20253;-73
2024/01/21 02:25:17;;;;;;;0.83;0.60;;;0.80;99.90;;;;;;7371317;19;20193;-74
2024/01/21 02:27:46;;;;;;;2.27;1.33;;;0.70;99.90;;;;;;7394565;19;20935;-72
2024/01/21 02:30:12;;;;;;;1.57;1.47;;;0.60;99.90;;;;;;7370098;19;20205;-73
2024/01/21 02:32:38;;;;;;;1.60;1.50;;;0.50;99.90;;;;;;7371169;19;20655;-73
2024/01/21 02:35:04;;;;;;;1.40;1.10;;;0.40;99.90;;;;;;7370453;19;20218;-73
2024/01/21 02:37:30;;;;;;;2.77;1.67;;;0.30;99.90;;;;;;7369849;19;20209;-72
2024/01/21 02:39:55;;;;;;;0.77;0.77;;;0.50;99.90;;;;;;7368411;19;20545;-74
2024/01/21 02:42:21;;;;;;;2.20;1.30;;;0.60;99.90;;;;;;7393605;19;20160;-73
2024/01/21 02:44:47;;;;;;;1.10;1.00;;;0.70;99.90;;;;;;7371262;19;20614;-73
2024/01/21 02:47:13;;;;;;;0.90;0.60;;;0.70;99.90;;;;;;7370330;19;20188;-73
2024/01/21 02:49:38;;;;;;;1.47;1.23;;;0.60;99.90;;;;;;7370284;19;20232;-72
2024/01/21 02:52:04;;;;;;;1.63;1.53;;;0.70;99.90;;;;;;7367461;19;20656;-73
2024/01/21 02:54:30;;;;;;;1.17;0.57;;;0.70;99.90;;;;;;7394247;19;20229;-73
2024/01/21 02:56:56;;;;;;;2.80;1.47;;;0.30;99.90;;;;;;7369991;19;20198;-74
2024/01/21 02:59:21;;;;;;;1.83;1.73;;;-0.10;99.90;;;;;;7369885;19;20194;-72
2024/01/21 03:01:47;;;;;;;1.60;1.50;;;0.00;99.90;;;;;;7366995;19;20927;-73
2024/01/21 03:04:13;;;;;;;1.47;1.10;;;0.30;99.90;;;;;;7370391;19;20565;-73
2024/01/21 03:06:40;;;;;;;2.13;1.97;;;0.30;99.90;;;;;;7392115;19;20163;-72
2024/01/21 03:09:06;;;;;;;1.70;1.40;;;0.20;99.90;;;;;;7370788;19;20200;-73
2024/01/21 03:11:32;;;;;;;1.47;1.37;;;0.30;99.90;;;;;;7367789;19;20190;-72
2024/01/21 03:13:58;;;;;;;0.83;0.83;;;0.50;99.90;;;;;;7368138;19;20182;-73
2024/01/21 03:16:24;;;;;;;4.30;1.80;;;0.50;99.90;;;;;;7369206;19;20647;-74
2024/01/21 03:18:50;;;;;;;1.53;1.43;;;0.50;99.90;;;;;;7370995;19;20621;-74
2024/01/21 03:21:15;;;;;;;1.10;1.10;;;0.50;99.90;;;;;;7387342;19;20201;-73
2024/01/21 03:23:41;;;;;;;2.03;1.93;;;0.50;99.90;;;;;;7369577;19;20548;-73
2024/01/21 03:26:07;;;;;;;1.57;1.47;;;0.60;99.90;;;;;;7368877;19;20192;-73
2024/01/21 03:28:33;;;;;;;1.50;1.40;;;0.30;99.90;;;;;;7370029;19;20204;-72
2024/01/21 03:30:59;;;;;;;0.87;0.87;;;0.40;99.90;;;;;;7369139;19;20655;-72
2024/01/21 03:33:26;;;;;;;1.70;1.60;;;0.40;99.90;;;;;;7392773;19;20596;-73
2024/01/21 03:35:52;;;;;;;2.27;1.70;;;0.40;99.90;;;;;;7368243;19;20192;-74
2024/01/21 03:38:18;;;;;;;5.60;2.10;;;0.30;99.90;;;;;;7370329;19;20253;-74
2024/01/21 03:40:44;;;;;;;4.57;1.70;;;0.40;99.90;;;;;;7368009;19;20206;-73
2024/01/21 03:43:10;;;;;;;0.83;0.83;;;0.40;99.90;;;;;;7369287;19;20194;-73
2024/01/21 03:45:36;;;;;;;1.13;0.93;;;0.40;99.90;;;;;;7385205;19;20773;-71
2024/01/21 03:48:01;;;;;;;1.13;1.13;;;0.40;99.90;;;;;;7370351;19;20257;-72
2024/01/21 03:50:27;;;;;;;14.83;1.97;;;0.40;99.90;;;;;;7366944;19;20197;-72
2024/01/21 03:52:53;;;;;;;1.50;1.40;;;0.50;99.90;;;;;;7368287;19;20198;-73
2024/01/21 03:55:20;;;;;;;2.60;2.27;;;0.50;99.90;;;;;;7368689;19;20583;-73
2024/01/21 03:57:46;;;;;;;1.67;1.10;;;0.50;99.90;;;;;;7390469;19;20139;-72
2024/01/21 04:00:12;;;;;;;1.23;1.13;;;0.50;99.90;;;;;;7367172;19;20186;-73
2024/01/21 04:02:38;;;;;;;3.37;2.13;;;0.50;99.90;;;;;;7367450;19;20189;-73
2024/01/21 04:05:05;;;;;;;3.33;1.13;;;0.50;99.90;;;;;;7369277;19;20280;-73
2024/01/21 04:07:31;;;;;;;1.77;1.30;;;0.30;99.90;;;;;;7368483;19;20237;-72
2024/01/21 04:09:56;;;;;;;1.73;1.63;;;0.40;99.90;;;;;;7367964;19;20172;-74
2024/01/21 04:12:22;;;;;;;1.07;1.07;;;0.50;99.90;;;;;;7389313;19;20177;-73
2024/01/21 04:14:48;;;;;;;1.70;1.60;;;0.50;99.90;;;;;;7367809;19;20204;-73
2024/01/21 04:17:14;;;;;;;2.90;1.70;;;0.50;99.90;;;;;;7367009;19;20193;-73
2024/01/21 04:19:39;;;;;;;1.77;1.67;;;0.50;99.90;;;;;;7368175;19;20200;-73
2024/01/21 04:22:05;;;;;;;2.30;1.67;;;0.50;99.90;;;;;;7367412;19;20183;-74
2024/01/21 04:24:31;;;;;;;1.37;1.00;;;0.50;99.90;;;;;;7387791;19;20627;-73
2024/01/21 04:26:57;;;;;;;1.60;0.93;;;-0.40;99.90;;;;;;7367687;19;20273;-74
2024/01/21 04:29:23;;;;;;;0.90;0.83;;;-0.20;99.90;;;;;;7363638;19;20606;-73
2024/01/21 04:31:48;;;;;;;1.93;1.73;;;-0.30;99.90;;;;;;7366900;19;20194;-74
2024/01/21 04:34:14;;;;;;;1.57;1.23;;;-0.30;99.90;;;;;;7367502;19;20194;-73
2024/01/21 04:36:40;;;;;;;1.27;1.23;;;0.10;99.90;;;;;;7387632;19;20628;-73
2024/01/21 04:39:06;;;;;;;1.13;1.13;;;0.30;99.90;;;;;;7366966;19;20257;-73
2024/01/21 04:41:32;;;;;;;2.20;2.00;;;0.40;99.90;;;;;;7365623;19;20178;-73
2024/01/21 04:43:58;;;;;;;4.03;1.40;;;0.50;99.90;;;;;;7367543;19;20710;-72
2024/01/21 04:46:24;;;;;;;2.10;1.27;;;0.50;99.90;;;;;;7367743;19;20214;-72
2024/01/21 04:48:50;;;;;;;1.23;1.10;;;0.50;99.90;;;;;;7366398;19;20138;-72
2024/01/21 04:51:17;;;;;;;2.60;2.17;;;0.50;99.90;;;;;;7387357;19;20173;-72
2024/01/21 04:53:44;;;;;;;3.63;1.53;;;0.50;99.90;;;;;;7367131;19;20201;-73
2024/01/21 04:56:17;;;;;;;1.07;0.97;;;0.40;99.90;;;;;;7364595;19;20198;-74
2024/01/21 04:58:43;;;;;;;1.50;1.27;;;0.40;99.90;;;;;;7366035;19;20662;-73
2024/01/21 05:01:09;;;;;;;1.50;1.40;;;0.40;99.90;;;;;;7366034;19;20202;-73
2024/01/21 05:03:35;;;;;;;2.30;1.60;;;0.50;99.90;;;;;;7386590;19;20497;-73
2024/01/21 05:06:03;;;;;;;1.50;1.40;;;0.30;99.90;;;;;;7365513;19;20727;-73
2024/01/21 05:08:29;;;;;;;2.03;1.90;;;0.20;99.90;;;;;;7367305;19;20231;-73
2024/01/21 05:10:55;;;;;;;2.37;1.73;;;0.40;99.90;;;;;;7365979;19;20651;-73
2024/01/21 05:13:21;;;;;;;1.00;1.00;;;0.50;99.90;;;;;;7366795;19;20213;-72
2024/01/21 05:15:47;;;;;;;1.57;1.47;;;0.50;99.90;;;;;;7382764;19;20175;-75
2024/01/21 05:18:14;;;;;;;1.37;1.27;;;0.50;99.90;;;;;;7387642;19;20154;-73
2024/01/21 05:20:39;;;;;;;0.77;0.77;;;0.40;99.90;;;;;;7365194;19;20242;-74
2024/01/21 05:23:05;;;;;;;2.90;1.80;;;0.40;99.90;;;;;;7364861;19;20268;-76
2024/01/21 05:25:31;;;;;;;4.27;1.50;;;0.30;99.90;;;;;;7365097;19;20192;-73
2024/01/21 05:27:56;;;;;;;2.30;1.60;;;0.20;99.90;;;;;;7363482;19;20254;-73
2024/01/21 05:30:22;;;;;;;2.43;2.23;;;0.10;99.90;;;;;;7386323;19;20145;-74
2024/01/21 05:32:50;;;;;;;3.10;1.20;;;0.20;99.90;;;;;;7365147;19;20656;-74
2024/01/21 05:35:17;;;;;;;1.97;1.87;;;0.20;99.90;;;;;;7363827;19;20186;-72
2024/01/21 05:37:43;;;;;;;1.33;1.23;;;0.30;99.90;;;;;;7367093;19;20188;-74
2024/01/21 05:40:09;;;;;;;1.60;1.50;;;0.30;99.90;;;;;;7372198;19;20205;-72
2024/01/21 05:42:34;;;;;;;1.63;1.53;;;0.40;99.90;;;;;;7395049;19;20138;-72
2024/01/21 05:45:00;;;;;;;2.10;1.97;;;0.30;99.90;;;;;;7373845;19;20196;-73
2024/01/21 05:47:26;;;;;;;1.03;0.93;;;0.20;99.90;;;;;;7371061;19;20761;-73
2024/01/21 05:49:51;;;;;;;1.90;1.67;;;-0.10;99.90;;;;;;7371755;19;20218;-73
2024/01/21 05:52:17;;;;;;;2.17;0.93;;;0.00;99.90;;;;;;7370929;19;20194;-74
2024/01/21 05:54:43;;;;;;;0.70;0.70;;;0.10;99.90;;;;;;7397031;19;20144;-72
2024/01/21 05:57:09;;;;;;;1.23;1.07;;;0.20;99.90;;;;;;7371554;19;20690;-73
2024/01/21 05:59:35;;;;;;;1.77;1.67;;;0.40;99.90;;;;;;7372974;19;20218;-75
2024/01/21 06:02:01;;;;;;;1.07;1.03;;;0.50;99.90;;;;;;7373337;19;20567;-73
2024/01/21 06:04:26;;;;;;;1.80;1.70;;;0.50;99.90;;;;;;7370620;19;20762;-73
2024/01/21 06:06:52;;;;;;;1.33;1.23;;;0.50;99.90;;;;;;7372191;19;20142;-74
2024/01/21 06:09:18;;;;;;;1.30;1.20;;;0.60;99.90;;;;;;7394411;19;20475;-72
2024/01/21 06:11:44;;;;;;;1.00;1.00;;;0.50;99.90;;;;;;7373442;19;20193;-73
2024/01/21 06:14:19;;;;;;;3.37;2.17;;;-0.30;99.90;;;;;;7366693;19;20880;-74
2024/01/21 06:16:44;;;;;;;3.00;2.00;;;-0.30;99.90;;;;;;7372752;19;20222;-73
2024/01/21 06:19:10;;;;;;;2.33;1.13;;;-0.10;99.90;;;;;;7368717;19;20198;-73
2024/01/21 06:21:43;;;;;;;1.93;1.83;;;-0.10;99.90;;;;;;7392494;19;20150;-73
2024/01/21 06:24:09;;;;;;;1.33;1.17;;;0.00;99.90;;;;;;7371531;19;20178;-72
2024/01/21 06:26:40;;;;;;;1.90;1.40;;;0.20;99.90;;;;;;7371655;19;20200;-74
2024/01/21 06:29:06;;;;;;;1.03;0.93;;;0.20;99.90;;;;;;7367616;19;20197;-73
2024/01/21 06:31:32;;;;;;;0.60;0.60;;;0.40;99.90;;;;;;7372253;19;20220;-73
2024/01/21 06:33:58;;;;;;;1.33;1.23;;;0.40;99.90;;;;;;7371770;19;20154;-73
2024/01/21 06:36:24;;;;;;;1.27;1.17;;;0.50;99.90;;;;;;7393098;19;20154;-72
2024/01/21 06:38:50;;;;;;;0.83;0.83;;;0.50;99.90;;;;;;7370616;19;20190;-74
2024/01/21 06:41:16;;;;;;;1.73;1.27;;;0.50;99.90;;;;;;7367847;19;20197;-74
2024/01/21 06:43:41;;;;;;;2.23;1.07;;;0.40;99.90;;;;;;7370063;19;20927;-72
2024/01/21 06:46:08;;;;;;;1.67;1.57;;;0.40;99.90;;;;;;7371422;19;20186;-73
2024/01/21 06:48:34;;;;;;;0.77;0.77;;;0.40;99.90;;;;;;7392101;19;20131;-73
2024/01/21 06:51:01;;;;;;;0.70;0.70;;;0.50;99.90;;;;;;7367824;19;20315;-74
2024/01/21 06:53:26;;;;;;;1.10;1.00;;;0.40;99.90;;;;;;7369692;19;20205;-74
2024/01/21 06:55:52;;;;;;;1.50;1.33;;;0.40;99.90;;;;;;7369285;19;20224;-72
2024/01/21 06:58:18;;;;;;;0.97;0.93;;;0.40;99.90;;;;;;7369931;19;20650;-73
2024/01/21 07:00:50;;;;;;;1.60;1.37;;;0.40;99.90;;;;;;7392543;19;20158;-74
2024/01/21 07:03:17;;;;;;;1.07;1.00;;;0.50;99.90;;;;;;7371501;19;20480;-74
2024/01/21 07:05:42;;;;;;;2.10;1.90;;;0.50;99.90;;;;;;7370438;19;20193;-72
2024/01/21 07:08:08;;;;;;;1.63;1.27;;;0.50;99.90;;;;;;7369156;19;20228;-73
2024/01/21 07:10:35;;;;;;;1.07;1.07;;;0.40;99.90;;;;;;7370685;19;20269;-73
2024/01/21 07:13:01;;;;;;;1.97;0.80;;;0.20;99.90;;;;;;7368032;19;20139;-73
2024/01/21 07:15:27;;;;;;;1.37;1.27;;;0.20;99.90;;;;;;7390909;19;20658;-73
2024/01/21 07:17:53;;;;;;;2.53;0.93;;;0.30;99.90;;;;;;7368029;19;20189;-74
2024/01/21 07:20:19;;;;;;;0.63;0.63;;;0.40;99.90;;;;;;7370641;19;20346;-73
2024/01/21 07:22:45;;;;;;;1.87;1.40;;;0.50;99.90;;;;;;7367857;19;20181;-74
2024/01/21 07:25:14;;;;;;;0.97;0.93;;;0.50;99.90;;;;;;7370010;19;20241;-74
2024/01/21 07:27:40;;;;;;;1.80;1.13;;;0.50;99.90;;;;;;7391472;19;20162;-73
2024/01/21 07:30:06;;;;;;;2.07;1.33;;;0.60;99.90;;;;;;7369660;19;20202;-73
2024/01/21 07:32:32;;;;;;;0.93;0.93;;;0.50;99.90;;;;;;7368049;19;20574;-74
2024/01/21 07:34:58;;;;;;;2.20;2.00;;;0.50;99.90;;;;;;7368690;19;20194;-73
2024/01/21 07:37:24;;;;;;;0.73;0.67;;;0.60;99.90;;;;;;7368003;19;20194;-73
2024/01/21 07:39:49;;;;;;;0.50;0.50;;;0.60;99.90;;;;;;7368742;19;20150;-74
2024/01/21 07:42:15;;;;;;;4.87;1.10;;;0.70;99.90;;;;;;7389999;19;20756;-73
2024/01/21 07:44:41;;;;;;;1.63;1.30;;;0.60;99.90;;;;;;7369160;19;20190;-72
2024/01/21 07:47:07;;;;;;;1.27;1.17;;;0.60;99.90;;;;;;7368007;19;20533;-73
2024/01/21 07:49:32;;;;;;;1.67;1.07;;;0.70;99.90;;;;;;7368808;19;20198;-72
2024/01/21 07:51:58;;;;;;;1.30;1.20;;;0.70;99.90;;;;;;7365930;19;20303;-73
2024/01/21 07:54:24;;;;;;;1.50;1.40;;;0.80;99.90;;;;;;7391883;19;20131;-73
2024/01/21 07:56:49;;;;;;;1.10;1.00;;;0.90;99.90;;;;;;7367892;19;20182;-74
2024/01/21 07:59:15;;;;;;;1.00;1.00;;;0.80;99.90;;;;;;7367468;19;20614;-75
2024/01/21 08:01:41;;;;;;;1.63;0.57;;;0.70;99.90;;;;;;7366221;19;20198;-74
2024/01/21 08:04:07;;;;;;;0.50;0.50;;;0.90;99.90;;;;;;7366517;19;20203;-73
2024/01/21 08:06:32;;;;;;;0.50;0.50;;;1.00;99.90;;;;;;7389314;19;20679;-75
2024/01/21 08:08:58;;;;;;;0.90;0.50;;;1.00;99.90;;;;;;7367655;19;20285;-74
2024/01/21 08:11:24;;;;;;;2.50;1.20;;;0.70;99.90;;;;;;7367323;19;20186;-74
2024/01/21 08:13:49;;;;;;;0.67;0.67;;;0.80;99.90;;;;;;7367026;19;20554;-74
2024/01/21 08:16:15;;;;;;;1.20;1.13;;;1.10;99.90;;;;;;7367741;19;20193;-75
2024/01/21 08:18:41;;;;;;;0.90;0.90;;;1.20;99.90;;;;;;7390553;19;20146;-75
2024/01/21 08:21:07;;;;;;;0.97;0.97;;;1.20;99.90;;;;;;7365226;19;20201;-76
2024/01/21 08:23:35;;;;;;;1.23;0.87;;;1.20;99.90;;;;;;7367766;19;20197;-76
2024/01/21 08:26:04;;;;;;;2.00;1.27;;;1.30;99.90;;;;;;7364894;19;20197;-75
2024/01/21 08:28:30;;;;;;;0.97;0.97;;;1.40;99.90;;;;;;7366662;19;20273;-74
2024/01/21 08:30:56;;;;;;;3.07;2.17;;;1.30;99.90;;;;;;7365761;19;20151;-76
2024/01/21 08:33:22;;;;;;;0.70;0.70;;;1.40;99.90;;;;;;7388772;19;20564;-78
2024/01/21 08:35:48;;;;;;;1.67;1.00;;;1.40;99.90;;;;;;7368229;19;20182;-77
2024/01/21 08:38:13;;;;;;;1.43;0.83;;;1.40;99.90;;;;;;7365417;19;20265;-75
2024/01/21 08:40:39;;;;;;;0.80;0.80;;;1.40;99.90;;;;;;7367055;19;20655;-75
2024/01/21 08:43:05;;;;;;;0.70;0.70;;;1.50;99.90;;;;;;7369070;19;20135;-75
2024/01/21 08:45:30;;;;;;;1.37;1.27;;;1.50;99.90;;;;;;7386708;19;20130;-75
2024/01/21 08:47:56;;;;;;;2.63;1.60;;;1.60;99.90;;;;;;7367177;19;20182;-76
2024/01/21 08:50:22;;;;;;;2.33;1.47;;;1.60;99.90;;;;;;7365977;19;20666;-77
2024/01/21 08:52:47;;;;;;;1.33;1.23;;;1.70;99.90;;;;;;7367134;19;20194;-76
2024/01/21 08:55:13;;;;;;;1.63;1.00;;;1.60;99.90;;;;;;7363559;19;20212;-75
2024/01/21 08:57:41;;;;;;;2.00;1.80;;;1.70;99.90;;;;;;7390004;19;20130;-76
2024/01/21 09:00:08;;;;;;;1.90;1.67;;;1.80;99.90;;;;;;7365101;19;20555;-75
2024/01/21 09:02:34;;;;;;;2.33;1.63;;;1.90;99.90;;;;;;7366419;19;20193;-76
2024/01/21 09:05:00;;;;;;;1.67;1.57;;;1.90;99.90;;;;;;7366839;19;20605;-76
2024/01/21 09:07:26;;;;;;;2.33;2.13;;;1.90;99.90;;;;;;7367685;19;20186;-74
2024/01/21 09:09:51;;;;;;;0.83;0.83;;;1.90;99.90;;;;;;7364748;19;20131;-73
2024/01/21 09:12:17;;;;;;;1.27;1.17;;;1.90;99.90;;;;;;7387543;19;20142;-75
2024/01/21 09:14:44;;;;;;;2.00;1.90;;;1.90;99.90;;;;;;7367208;19;20579;-75
2024/01/21 09:17:10;;;;;;;1.10;1.00;;;1.90;99.90;;;;;;7365982;19;20203;-75
2024/01/21 09:19:36;;;;;;;1.00;1.00;;;2.00;99.90;;;;;;7363186;19;20189;-74
2024/01/21 09:22:01;;;;;;;1.57;1.17;;;1.90;99.90;;;;;;7364685;19;20142;-75
2024/01/21 09:24:27;;;;;;;1.50;1.40;;;1.60;99.90;;;;;;7388531;19;20257;-78
2024/01/21 09:26:53;;;;;;;2.03;1.60;;;1.80;99.90;;;;;;7366172;19;20655;-73
2024/01/21 09:29:19;;;;;;;2.10;1.67;;;1.90;99.90;;;;;;7361682;19;20417;-73
2024/01/21 09:31:54;;;;;;;1.77;1.53;;;1.90;99.90;;;;;;7365395;19;20257;-73
2024/01/21 09:34:20;;;;;;;2.10;1.83;;;2.00;99.90;;;;;;7364171;19;20622;-73
2024/01/21 09:36:45;;;;;;;1.57;1.47;;;2.00;99.90;;;;;;7387024;19;20130;-73
2024/01/21 09:39:11;;;;;;;1.13;1.10;;;2.10;99.90;;;;;;7365382;19;20198;-73
2024/01/21 09:41:50;;;;;;;1.60;1.23;;;2.10;99.90;;;;;;7366209;19;20190;-73
2024/01/21 09:44:24;;;;;;;1.30;1.20;;;2.10;99.90;;;;;;7364551;19;20201;-74
2024/01/21 09:46:58;;;;;;;2.23;1.93;;;2.10;99.90;;;;;;7364211;19;20270;-74
2024/01/21 09:49:31;;;;;;;0.90;0.90;;;2.10;99.90;;;;;;7364204;19;20198;-74
2024/01/21 09:51:57;;;;;;;1.97;1.40;;;2.00;99.90;;;;;;7360938;19;20553;-74
2024/01/21 09:54:23;;;;;;;2.03;1.50;;;2.00;99.90;;;;;;7388549;19;20160;-74
2024/01/21 09:56:49;;;;;;;0.87;0.83;;;2.00;99.90;;;;;;7364542;19;20375;-73
2024/01/21 09:59:16;;;;;;;1.93;1.53;;;2.20;99.90;;;;;;7366096;19;20584;-73
2024/01/21 10:01:43;;;;;;;2.30;2.07;;;2.30;99.90;;;;;;7361850;19;20186;-73
2024/01/21 10:04:09;;;;;;;1.93;1.57;;;2.40;99.90;;;;;;7366327;19;20218;-74
2024/01/21 10:06:35;;;;;;;2.10;1.33;;;2.40;99.90;;;;;;7387636;19;20143;-72
2024/01/21 10:09:19;;;;;;;1.80;1.53;;;2.60;99.90;;;;;;7364104;19;20197;-73
2024/01/21 10:11:56;;;;;;;1.77;1.43;;;2.80;99.90;;;;;;7364532;19;20254;-73
2024/01/21 10:14:24;;;;;;;1.20;1.10;;;2.90;99.90;;;;;;7363389;19;20197;-74
2024/01/21 10:16:50;;;;;;;1.20;1.07;;;3.00;99.90;;;;;;7363358;19;20193;-72
2024/01/21 10:19:27;;;;;;;1.60;1.50;;;3.00;99.90;;;;;;7363569;19;20190;-74
2024/01/21 10:22:13;;;;;;;1.30;1.27;;;3.00;99.90;;;;;;7363355;19;20164;-73
2024/01/21 10:24:45;;;;;;;1.83;1.30;;;3.10;99.90;;;;;;7388895;19;20155;-74
2024/01/21 10:27:11;;;;;;;0.97;0.93;;;3.20;99.90;;;;;;7370224;19;20743;-74
2024/01/21 10:29:41;;;;;;;1.10;1.00;;;3.30;99.90;;;;;;7368771;19;20209;-72
2024/01/21 10:32:10;;;;;;;1.47;1.37;;;3.40;99.90;;;;;;7370153;19;20181;-76
2024/01/21 10:34:41;;;;;;;1.50;1.17;;;3.50;99.90;;;;;;7370462;19;20197;-75
2024/01/21 10:37:07;;;;;;;2.40;1.60;;;3.60;99.90;;;;;;7373259;19;20218;-74
2024/01/21 10:39:37;;;;;;;1.50;1.40;;;3.60;99.90;;;;;;7394337;19;20147;-74
2024/01/21 10:42:05;;;;;;;2.37;1.53;;;3.70;99.90;;;;;;7372164;19;20203;-73
2024/01/21 10:44:34;;;;;;;0.63;0.63;;;3.70;99.90;;;;;;7371316;19;20193;-74
2024/01/21 10:47:01;;;;;;;1.93;1.67;;;3.80;99.90;;;;;;7367393;19;20655;-74
2024/01/21 10:49:27;;;;;;;2.47;1.67;;;3.80;99.90;;;;;;7368525;19;20186;-76
2024/01/21 10:51:53;;;;;;;1.87;1.73;;;3.40;99.90;;;;;;7367153;19;20166;-74
2024/01/21 10:54:20;;;;;;;1.47;1.37;;;3.70;99.90;;;;;;7391847;19;20138;-73
2024/01/21 10:56:48;;;;;;;1.43;1.17;;;3.80;99.90;;;;;;7365975;19;20282;-72
2024/01/21 10:59:14;;;;;;;1.87;1.43;;;3.60;99.90;;;;;;7367528;19;20217;-73
2024/01/21 11:01:42;;;;;;;2.33;1.47;;;3.90;99.90;;;;;;7366835;19;20194;-73
2024/01/21 11:04:12;;;;;;;1.50;1.40;;;4.00;99.90;;;;;;7369268;19;20187;-73
2024/01/21 11:06:42;;;;;;;2.20;1.90;;;4.20;99.90;;;;;;7390760;19;20164;-73
2024/01/21 11:09:08;;;;;;;1.87;1.77;;;4.40;99.90;;;;;;7368115;19;20182;-72
2024/01/21 11:11:44;;;;;;;2.00;1.60;;;4.40;99.90;;;;;;7367833;19;20543;-73
2024/01/21 11:14:46;;;;;;;1.77;1.40;;;4.50;99.90;;;;;;7366371;19;20189;-72
2024/01/21 11:17:15;;;;;;;1.47;1.37;;;4.60;99.90;;;;;;7367589;19;20554;-72
2024/01/21 11:19:53;;;;;;;1.20;1.10;;;4.60;99.90;;;;;;7365324;19;20196;-72
2024/01/21 11:22:22;;;;;;;2.37;1.80;;;4.60;99.90;;;;;;7366991;19;20671;-72
2024/01/21 11:24:48;;;;;;;1.60;1.50;;;4.60;99.90;;;;;;7380093;19;20160;-72
2024/01/21 11:27:30;;;;;;;2.30;1.60;;;4.20;99.90;;;;;;7389646;19;20150;-72
2024/01/21 11:30:00;;;;;;;1.43;0.90;;;4.40;99.90;;;;;;7364845;19;20186;-72
2024/01/21 11:32:30;;;;;;;2.10;1.57;;;4.60;99.90;;;;;;7369078;19;20573;-72
2024/01/21 11:35:07;;;;;;;1.37;1.27;;;4.60;99.90;;;;;;7364373;19;20557;-72
2024/01/21 11:37:33;;;;;;;1.80;1.03;;;4.80;99.90;;;;;;7366884;19;20185;-72
2024/01/21 11:40:01;;;;;;;2.90;1.43;;;4.80;99.90;;;;;;7366696;19;20150;-72
2024/01/21 11:42:27;;;;;;;1.93;1.57;;;4.80;99.90;;;;;;7389377;19;20147;-72
2024/01/21 11:45:03;;;;;;;1.10;1.00;;;4.70;99.90;;;;;;7368117;19;20216;-73
2024/01/21 11:47:30;;;;;;;0.83;0.80;;;4.60;99.90;;;;;;7366072;19;20639;-71
2024/01/21 11:50:00;;;;;;;1.67;1.40;;;4.80;99.90;;;;;;7366805;19;20193;-72
2024/01/21 11:52:28;;;;;;;2.00;1.03;;;4.90;99.90;;;;;;7365703;19;20532;-73
2024/01/21 11:54:58;;;;;;;3.77;2.03;;;5.00;99.90;;;;;;7369598;19;20159;-72
2024/01/21 11:57:27;;;;;;;1.87;1.37;;;5.30;99.90;;;;;;7391773;19;20122;-72
2024/01/21 11:59:54;;;;;;;1.47;1.13;;;5.50;99.90;;;;;;7366662;19;20206;-72
2024/01/21 12:02:20;;;;;;;1.83;1.73;;;5.60;99.90;;;;;;7368176;19;20273;-71
2024/01/21 12:04:46;;;;;;;1.60;1.50;;;5.50;99.90;;;;;;7367879;19;20198;-72
2024/01/21 12:07:12;;;;;;;2.23;1.43;;;5.40;99.90;;;;;;7366999;19;20237;-72
2024/01/21 12:09:38;;;;;;;1.57;1.33;;;5.30;99.90;;;;;;7388899;19;20139;-73
2024/01/21 12:12:07;;;;;;;2.00;1.50;;;5.30;99.90;;;;;;7365218;19;20197;-73
2024/01/21 12:14:33;;;;;;;3.67;2.23;;;5.30;99.90;;;;;;7361674;19;20611;-73
2024/01/21 12:17:02;;;;;;;1.83;1.63;;;5.40;99.90;;;;;;7362740;19;20201;-73
2024/01/21 12:19:28;;;;;;;1.83;1.60;;;5.40;99.90;;;;;;7361077;19;20194;-78
2024/01/21 12:21:55;;;;;;;2.50;2.13;;;5.50;99.90;;;;;;7359542;19;20138;-75
2024/01/21 12:24:24;;;;;;;2.53;1.60;;;5.50;99.90;;;;;;7385463;19;20210;-77
2024/01/21 12:26:53;;;;;;;2.10;1.83;;;5.70;99.90;;;;;;7366284;19;20198;-77
2024/01/21 12:29:21;;;;;;;1.77;1.57;;;5.90;99.90;;;;;;7363974;19;20204;-76
2024/01/21 12:31:49;;;;;;;2.03;1.60;;;5.90;99.90;;;;;;7367812;19;20267;-77
2024/01/21 12:34:14;;;;;;;2.40;1.80;;;6.00;99.90;;;;;;7367038;19;20198;-77
2024/01/21 12:36:42;;;;;;;3.07;2.23;;;6.00;99.90;;;;;;7390115;19;20713;-78
2024/01/21 12:39:13;;;;;;;2.87;2.10;;;6.10;99.90;;;;;;7368595;19;20189;-78
2024/01/21 12:41:39;;;;;;;2.40;1.97;;;6.20;99.90;;;;;;7365710;19;20659;-77
2024/01/21 12:44:05;;;;;;;2.40;2.20;;;6.30;99.90;;;;;;7366556;19;20213;-77
2024/01/21 12:46:32;;;;;;;2.80;2.10;;;6.30;99.90;;;;;;7367771;19;20194;-77
2024/01/21 12:48:58;;;;;;;5.40;2.10;;;6.40;99.90;;;;;;7364820;19;20164;-77
2024/01/21 12:51:25;;;;;;;2.87;2.40;;;6.70;99.90;;;;;;7387385;19;20825;-78
2024/01/21 12:53:52;;;;;;;2.47;1.80;;;6.60;99.90;;;;;;7358941;19;20809;-78
2024/01/21 12:56:19;;;;;;;2.60;2.10;;;6.70;99.90;;;;;;7367961;19;20190;-78